sensor_id;sensor_type;location;lat;lon;timestamp;P1;durP1;ratioP1;P2;durP2;ratioP2
1294;SDS011;640;48.310;11.728;2022-09-03T00:02:37;3.88;;;2.55;;
1294;SDS011;640;48.310;11.728;2022-09-03T00:05:11;4.28;;;2.20;;
1294;SDS011;640;48.310;11.728;2022-09-03T00:07:48;4.50;;;2.20;;
1294;SDS011;640;48.310;11.728;2022-09-03T00:10:24;3.00;;;2.30;;
1294;SDS011;640;48.310;11.728;2022-09-03T00:12:56;4.18;;;2.17;;
1294;SDS011;640;48.310;11.728;2022-09-03T00:15:27;4.05;;;2.25;;
1294;SDS011;640;48.310;11.728;2022-09-03T00:17:57;3.38;;;2.17;;
1294;SDS011;640;48.310;11.728;2022-09-03T00:20:30;3.03;;;2.35;;
1294;SDS011;640;48.310;11.728;2022-09-03T00:23:02;2.97;;;2.30;;
1294;SDS011;640;48.310;11.728;2022-09-03T00:25:33;3.17;;;2.50;;
1294;SDS011;640;48.310;11.728;2022-09-03T00:28:05;3.75;;;2.40;;
1294;SDS011;640;48.310;11.728;2022-09-03T00:30:36;6.10;;;2.70;;
1294;SDS011;640;48.310;11.728;2022-09-03T00:35:44;6.45;;;2.70;;
1294;SDS011;640;48.310;11.728;2022-09-03T00:38:15;4.13;;;2.72;;
1294;SDS011;640;48.310;11.728;2022-09-03T00:40:50;3.58;;;2.28;;
1294;SDS011;640;48.310;11.728;2022-09-03T00:43:31;3.75;;;2.22;;
1294;SDS011;640;48.310;11.728;2022-09-03T00:46:08;3.70;;;2.50;;
1294;SDS011;640;48.310;11.728;2022-09-03T00:48:49;3.08;;;2.38;;
1294;SDS011;640;48.310;11.728;2022-09-03T00:51:25;3.20;;;2.45;;
1294;SDS011;640;48.310;11.728;2022-09-03T00:54:02;3.70;;;2.33;;
1294;SDS011;640;48.310;11.728;2022-09-03T00:56:35;2.92;;;2.40;;
1294;SDS011;640;48.310;11.728;2022-09-03T00:59:10;4.45;;;2.35;;
1294;SDS011;640;48.310;11.728;2022-09-03T01:01:45;4.57;;;2.55;;
1294;SDS011;640;48.310;11.728;2022-09-03T01:04:23;3.50;;;2.22;;
1294;SDS011;640;48.310;11.728;2022-09-03T01:06:56;2.95;;;2.42;;
1294;SDS011;640;48.310;11.728;2022-09-03T01:09:32;5.35;;;2.60;;
1294;SDS011;640;48.310;11.728;2022-09-03T01:12:07;4.07;;;2.55;;
1294;SDS011;640;48.310;11.728;2022-09-03T01:14:45;3.45;;;2.72;;
1294;SDS011;640;48.310;11.728;2022-09-03T01:17:24;2.67;;;2.45;;
1294;SDS011;640;48.310;11.728;2022-09-03T01:20:03;4.22;;;2.78;;
1294;SDS011;640;48.310;11.728;2022-09-03T01:22:57;3.42;;;2.58;;
1294;SDS011;640;48.310;11.728;2022-09-03T01:28:17;7.43;;;2.80;;
1294;SDS011;640;48.310;11.728;2022-09-03T01:30:52;4.20;;;2.85;;
1294;SDS011;640;48.310;11.728;2022-09-03T01:33:26;4.13;;;2.78;;
1294;SDS011;640;48.310;11.728;2022-09-03T01:35:59;2.90;;;2.55;;
1294;SDS011;640;48.310;11.728;2022-09-03T01:38:31;3.20;;;2.35;;
1294;SDS011;640;48.310;11.728;2022-09-03T01:41:04;2.60;;;2.40;;
1294;SDS011;640;48.310;11.728;2022-09-03T01:43:52;4.22;;;2.80;;
1294;SDS011;640;48.310;11.728;2022-09-03T01:46:25;3.17;;;2.88;;
1294;SDS011;640;48.310;11.728;2022-09-03T01:49:00;5.00;;;2.67;;
1294;SDS011;640;48.310;11.728;2022-09-03T01:51:33;3.38;;;2.70;;
1294;SDS011;640;48.310;11.728;2022-09-03T01:54:16;3.17;;;2.72;;
1294;SDS011;640;48.310;11.728;2022-09-03T01:56:57;3.60;;;2.60;;
1294;SDS011;640;48.310;11.728;2022-09-03T02:00:05;3.55;;;2.78;;
1294;SDS011;640;48.310;11.728;2022-09-03T02:02:36;5.00;;;2.80;;
1294;SDS011;640;48.310;11.728;2022-09-03T02:05:06;2.80;;;2.53;;
1294;SDS011;640;48.310;11.728;2022-09-03T02:07:36;3.88;;;2.67;;
1294;SDS011;640;48.310;11.728;2022-09-03T02:10:07;3.22;;;2.67;;
1294;SDS011;640;48.310;11.728;2022-09-03T02:12:36;4.35;;;3.10;;
1294;SDS011;640;48.310;11.728;2022-09-03T02:15:09;4.82;;;3.03;;
1294;SDS011;640;48.310;11.728;2022-09-03T02:17:39;4.60;;;3.05;;
1294;SDS011;640;48.310;11.728;2022-09-03T02:20:11;3.78;;;2.83;;
1294;SDS011;640;48.310;11.728;2022-09-03T02:22:44;3.90;;;2.90;;
1294;SDS011;640;48.310;11.728;2022-09-03T02:25:13;4.70;;;3.05;;
1294;SDS011;640;48.310;11.728;2022-09-03T02:27:41;3.95;;;3.25;;
1294;SDS011;640;48.310;11.728;2022-09-03T02:30:12;3.80;;;3.40;;
1294;SDS011;640;48.310;11.728;2022-09-03T02:32:40;5.07;;;3.30;;
1294;SDS011;640;48.310;11.728;2022-09-03T02:35:09;3.92;;;3.38;;
1294;SDS011;640;48.310;11.728;2022-09-03T02:37:39;6.10;;;3.22;;
1294;SDS011;640;48.310;11.728;2022-09-03T02:40:07;3.42;;;3.08;;
1294;SDS011;640;48.310;11.728;2022-09-03T02:42:37;5.18;;;3.30;;
1294;SDS011;640;48.310;11.728;2022-09-03T02:45:08;4.63;;;3.10;;
1294;SDS011;640;48.310;11.728;2022-09-03T02:47:43;3.67;;;3.30;;
1294;SDS011;640;48.310;11.728;2022-09-03T02:50:12;3.50;;;3.20;;
1294;SDS011;640;48.310;11.728;2022-09-03T02:52:40;4.47;;;3.15;;
1294;SDS011;640;48.310;11.728;2022-09-03T02:55:08;3.72;;;3.30;;
1294;SDS011;640;48.310;11.728;2022-09-03T02:57:37;3.85;;;3.45;;
1294;SDS011;640;48.310;11.728;2022-09-03T03:00:06;4.22;;;3.65;;
1294;SDS011;640;48.310;11.728;2022-09-03T03:02:37;4.93;;;3.15;;
1294;SDS011;640;48.310;11.728;2022-09-03T03:05:06;5.57;;;3.15;;
1294;SDS011;640;48.310;11.728;2022-09-03T03:07:35;4.25;;;3.50;;
1294;SDS011;640;48.310;11.728;2022-09-03T03:10:05;3.42;;;3.13;;
1294;SDS011;640;48.310;11.728;2022-09-03T03:12:34;5.03;;;3.40;;
1294;SDS011;640;48.310;11.728;2022-09-03T03:15:03;4.20;;;3.38;;
1294;SDS011;640;48.310;11.728;2022-09-03T03:17:32;7.80;;;3.50;;
1294;SDS011;640;48.310;11.728;2022-09-03T03:20:02;5.60;;;3.25;;
1294;SDS011;640;48.310;11.728;2022-09-03T03:22:31;6.03;;;3.70;;
1294;SDS011;640;48.310;11.728;2022-09-03T03:24:59;4.13;;;3.20;;
1294;SDS011;640;48.310;11.728;2022-09-03T03:27:28;4.68;;;3.50;;
1294;SDS011;640;48.310;11.728;2022-09-03T03:29:56;4.75;;;3.70;;
1294;SDS011;640;48.310;11.728;2022-09-03T03:32:25;3.72;;;3.33;;
1294;SDS011;640;48.310;11.728;2022-09-03T03:34:53;4.32;;;3.22;;
1294;SDS011;640;48.310;11.728;2022-09-03T03:37:23;4.38;;;3.45;;
1294;SDS011;640;48.310;11.728;2022-09-03T03:39:51;5.27;;;3.33;;
1294;SDS011;640;48.310;11.728;2022-09-03T03:42:20;5.43;;;3.67;;
1294;SDS011;640;48.310;11.728;2022-09-03T03:44:48;3.97;;;3.28;;
1294;SDS011;640;48.310;11.728;2022-09-03T03:47:16;4.90;;;3.63;;
1294;SDS011;640;48.310;11.728;2022-09-03T03:49:45;4.50;;;3.67;;
1294;SDS011;640;48.310;11.728;2022-09-03T03:52:13;4.00;;;3.60;;
1294;SDS011;640;48.310;11.728;2022-09-03T03:54:43;4.03;;;3.63;;
1294;SDS011;640;48.310;11.728;2022-09-03T03:57:11;5.13;;;3.60;;
1294;SDS011;640;48.310;11.728;2022-09-03T03:59:39;7.55;;;3.45;;
1294;SDS011;640;48.310;11.728;2022-09-03T04:02:08;5.50;;;3.78;;
1294;SDS011;640;48.310;11.728;2022-09-03T04:04:36;5.25;;;3.63;;
1294;SDS011;640;48.310;11.728;2022-09-03T04:07:04;5.15;;;3.67;;
1294;SDS011;640;48.310;11.728;2022-09-03T04:09:33;4.63;;;3.60;;
1294;SDS011;640;48.310;11.728;2022-09-03T04:12:03;3.88;;;3.47;;
1294;SDS011;640;48.310;11.728;2022-09-03T04:14:34;4.57;;;3.67;;
1294;SDS011;640;48.310;11.728;2022-09-03T04:17:03;4.45;;;3.47;;
1294;SDS011;640;48.310;11.728;2022-09-03T04:19:31;6.80;;;3.72;;
1294;SDS011;640;48.310;11.728;2022-09-03T04:21:59;7.63;;;3.78;;
1294;SDS011;640;48.310;11.728;2022-09-03T04:24:28;4.75;;;3.70;;
1294;SDS011;640;48.310;11.728;2022-09-03T04:26:58;4.10;;;3.47;;
1294;SDS011;640;48.310;11.728;2022-09-03T04:29:27;5.75;;;3.80;;
1294;SDS011;640;48.310;11.728;2022-09-03T04:34:38;3.92;;;3.42;;
1294;SDS011;640;48.310;11.728;2022-09-03T04:37:07;4.47;;;3.03;;
1294;SDS011;640;48.310;11.728;2022-09-03T04:39:36;3.40;;;3.03;;
1294;SDS011;640;48.310;11.728;2022-09-03T04:42:05;5.35;;;3.28;;
1294;SDS011;640;48.310;11.728;2022-09-03T04:44:34;4.43;;;3.33;;
1294;SDS011;640;48.310;11.728;2022-09-03T04:49:32;4.28;;;3.30;;
1294;SDS011;640;48.310;11.728;2022-09-03T04:52:00;5.85;;;3.60;;
1294;SDS011;640;48.310;11.728;2022-09-03T04:54:29;4.30;;;3.58;;
1294;SDS011;640;48.310;11.728;2022-09-03T04:56:57;5.18;;;3.60;;
1294;SDS011;640;48.310;11.728;2022-09-03T04:59:25;4.10;;;3.70;;
1294;SDS011;640;48.310;11.728;2022-09-03T05:01:55;6.07;;;4.40;;
1294;SDS011;640;48.310;11.728;2022-09-03T05:04:24;4.90;;;3.65;;
1294;SDS011;640;48.310;11.728;2022-09-03T05:06:52;5.47;;;3.58;;
1294;SDS011;640;48.310;11.728;2022-09-03T05:09:31;5.82;;;3.58;;
1294;SDS011;640;48.310;11.728;2022-09-03T05:11:59;3.80;;;3.17;;
1294;SDS011;640;48.310;11.728;2022-09-03T05:14:28;4.50;;;3.00;;
1294;SDS011;640;48.310;11.728;2022-09-03T05:16:56;4.53;;;3.00;;
1294;SDS011;640;48.310;11.728;2022-09-03T05:19:24;6.38;;;2.85;;
1294;SDS011;640;48.310;11.728;2022-09-03T05:21:53;3.20;;;2.63;;
1294;SDS011;640;48.310;11.728;2022-09-03T05:24:21;6.15;;;3.10;;
1294;SDS011;640;48.310;11.728;2022-09-03T05:26:52;3.70;;;2.83;;
1294;SDS011;640;48.310;11.728;2022-09-03T05:31:49;4.05;;;2.88;;
1294;SDS011;640;48.310;11.728;2022-09-03T05:34:18;3.50;;;2.97;;
1294;SDS011;640;48.310;11.728;2022-09-03T05:36:46;3.80;;;3.08;;
1294;SDS011;640;48.310;11.728;2022-09-03T05:39:15;5.13;;;3.30;;
1294;SDS011;640;48.310;11.728;2022-09-03T05:41:44;3.63;;;3.10;;
1294;SDS011;640;48.310;11.728;2022-09-03T05:44:13;7.00;;;3.08;;
1294;SDS011;640;48.310;11.728;2022-09-03T05:46:41;4.03;;;3.40;;
1294;SDS011;640;48.310;11.728;2022-09-03T05:49:10;5.07;;;3.22;;
1294;SDS011;640;48.310;11.728;2022-09-03T05:51:38;6.10;;;3.20;;
1294;SDS011;640;48.310;11.728;2022-09-03T05:54:08;6.88;;;3.30;;
1294;SDS011;640;48.310;11.728;2022-09-03T05:56:37;4.90;;;3.13;;
1294;SDS011;640;48.310;11.728;2022-09-03T05:59:07;4.10;;;3.17;;
1294;SDS011;640;48.310;11.728;2022-09-03T06:01:38;4.20;;;3.20;;
1294;SDS011;640;48.310;11.728;2022-09-03T06:04:17;4.00;;;2.95;;
1294;SDS011;640;48.310;11.728;2022-09-03T06:06:46;4.00;;;3.20;;
1294;SDS011;640;48.310;11.728;2022-09-03T06:09:15;3.38;;;3.00;;
1294;SDS011;640;48.310;11.728;2022-09-03T06:11:45;4.18;;;3.30;;
1294;SDS011;640;48.310;11.728;2022-09-03T06:14:16;4.30;;;2.95;;
1294;SDS011;640;48.310;11.728;2022-09-03T06:16:46;3.10;;;2.80;;
1294;SDS011;640;48.310;11.728;2022-09-03T06:19:16;4.30;;;2.92;;
1294;SDS011;640;48.310;11.728;2022-09-03T06:21:44;5.07;;;2.95;;
1294;SDS011;640;48.310;11.728;2022-09-03T06:24:14;3.75;;;3.03;;
1294;SDS011;640;48.310;11.728;2022-09-03T06:26:43;3.88;;;3.13;;
1294;SDS011;640;48.310;11.728;2022-09-03T06:29:12;5.40;;;3.20;;
1294;SDS011;640;48.310;11.728;2022-09-03T06:31:41;4.57;;;3.10;;
1294;SDS011;640;48.310;11.728;2022-09-03T06:34:12;4.22;;;3.45;;
1294;SDS011;640;48.310;11.728;2022-09-03T06:36:41;4.10;;;3.30;;
1294;SDS011;640;48.310;11.728;2022-09-03T06:39:09;4.18;;;3.22;;
1294;SDS011;640;48.310;11.728;2022-09-03T06:41:38;5.05;;;3.30;;
1294;SDS011;640;48.310;11.728;2022-09-03T06:44:07;4.10;;;3.30;;
1294;SDS011;640;48.310;11.728;2022-09-03T06:46:38;4.25;;;3.45;;
1294;SDS011;640;48.310;11.728;2022-09-03T06:51:38;4.97;;;3.08;;
1294;SDS011;640;48.310;11.728;2022-09-03T06:54:07;6.78;;;3.67;;
1294;SDS011;640;48.310;11.728;2022-09-03T06:56:37;5.63;;;3.30;;
1294;SDS011;640;48.310;11.728;2022-09-03T06:59:07;6.53;;;3.10;;
1294;SDS011;640;48.310;11.728;2022-09-03T07:01:36;5.05;;;3.50;;
1294;SDS011;640;48.310;11.728;2022-09-03T07:04:10;4.75;;;3.60;;
1294;SDS011;640;48.310;11.728;2022-09-03T07:06:40;6.22;;;3.38;;
1294;SDS011;640;48.310;11.728;2022-09-03T07:09:10;5.75;;;3.50;;
1294;SDS011;640;48.310;11.728;2022-09-03T07:11:39;5.00;;;3.55;;
1294;SDS011;640;48.310;11.728;2022-09-03T07:14:13;4.82;;;3.75;;
1294;SDS011;640;48.310;11.728;2022-09-03T07:16:43;4.43;;;3.33;;
1294;SDS011;640;48.310;11.728;2022-09-03T07:19:12;3.97;;;3.55;;
1294;SDS011;640;48.310;11.728;2022-09-03T07:21:41;4.60;;;3.22;;
1294;SDS011;640;48.310;11.728;2022-09-03T07:24:16;5.80;;;3.50;;
1294;SDS011;640;48.310;11.728;2022-09-03T07:26:45;5.07;;;3.70;;
1294;SDS011;640;48.310;11.728;2022-09-03T07:29:14;4.17;;;3.33;;
1294;SDS011;640;48.310;11.728;2022-09-03T07:31:46;6.18;;;3.90;;
1294;SDS011;640;48.310;11.728;2022-09-03T07:34:18;4.20;;;3.40;;
1294;SDS011;640;48.310;11.728;2022-09-03T07:36:49;5.72;;;3.30;;
1294;SDS011;640;48.310;11.728;2022-09-03T07:39:18;6.03;;;3.67;;
1294;SDS011;640;48.310;11.728;2022-09-03T07:41:46;4.45;;;3.30;;
1294;SDS011;640;48.310;11.728;2022-09-03T07:44:16;5.63;;;3.67;;
1294;SDS011;640;48.310;11.728;2022-09-03T07:46:46;5.32;;;3.60;;
1294;SDS011;640;48.310;11.728;2022-09-03T07:49:17;6.47;;;4.20;;
1294;SDS011;640;48.310;11.728;2022-09-03T07:51:46;4.65;;;3.95;;
1294;SDS011;640;48.310;11.728;2022-09-03T07:54:18;5.13;;;4.13;;
1294;SDS011;640;48.310;11.728;2022-09-03T07:56:47;5.38;;;3.78;;
1294;SDS011;640;48.310;11.728;2022-09-03T07:59:15;6.63;;;3.97;;
1294;SDS011;640;48.310;11.728;2022-09-03T08:01:45;5.43;;;4.20;;
1294;SDS011;640;48.310;11.728;2022-09-03T08:04:13;6.25;;;3.90;;
1294;SDS011;640;48.310;11.728;2022-09-03T08:06:41;6.05;;;4.00;;
1294;SDS011;640;48.310;11.728;2022-09-03T08:09:10;5.40;;;3.95;;
1294;SDS011;640;48.310;11.728;2022-09-03T08:11:41;5.70;;;4.03;;
1294;SDS011;640;48.310;11.728;2022-09-03T08:14:11;5.38;;;3.95;;
1294;SDS011;640;48.310;11.728;2022-09-03T08:16:41;5.60;;;3.72;;
1294;SDS011;640;48.310;11.728;2022-09-03T08:19:10;5.97;;;3.97;;
1294;SDS011;640;48.310;11.728;2022-09-03T08:21:39;4.22;;;3.72;;
1294;SDS011;640;48.310;11.728;2022-09-03T08:24:08;6.90;;;4.07;;
1294;SDS011;640;48.310;11.728;2022-09-03T08:26:39;6.03;;;3.63;;
1294;SDS011;640;48.310;11.728;2022-09-03T08:29:16;8.50;;;3.38;;
1294;SDS011;640;48.310;11.728;2022-09-03T08:31:44;6.65;;;3.95;;
1294;SDS011;640;48.310;11.728;2022-09-03T08:34:13;4.70;;;3.53;;
1294;SDS011;640;48.310;11.728;2022-09-03T08:36:43;6.32;;;3.55;;
1294;SDS011;640;48.310;11.728;2022-09-03T08:39:12;10.40;;;3.92;;
1294;SDS011;640;48.310;11.728;2022-09-03T08:44:44;7.20;;;3.75;;
1294;SDS011;640;48.310;11.728;2022-09-03T08:47:15;6.63;;;3.67;;
1294;SDS011;640;48.310;11.728;2022-09-03T08:49:48;3.97;;;3.50;;
1294;SDS011;640;48.310;11.728;2022-09-03T08:52:24;4.55;;;3.75;;
1294;SDS011;640;48.310;11.728;2022-09-03T08:54:57;4.20;;;3.80;;
1294;SDS011;640;48.310;11.728;2022-09-03T08:57:35;4.95;;;3.70;;
1294;SDS011;640;48.310;11.728;2022-09-03T09:00:09;6.07;;;3.58;;
1294;SDS011;640;48.310;11.728;2022-09-03T09:02:40;4.68;;;3.55;;
1294;SDS011;640;48.310;11.728;2022-09-03T09:05:16;5.63;;;3.90;;
1294;SDS011;640;48.310;11.728;2022-09-03T09:07:48;4.95;;;3.80;;
1294;SDS011;640;48.310;11.728;2022-09-03T09:10:20;8.00;;;4.10;;
1294;SDS011;640;48.310;11.728;2022-09-03T09:12:57;5.43;;;4.35;;
1294;SDS011;640;48.310;11.728;2022-09-03T09:15:36;5.25;;;4.40;;
1294;SDS011;640;48.310;11.728;2022-09-03T09:18:09;5.82;;;4.18;;
1294;SDS011;640;48.310;11.728;2022-09-03T09:20:42;4.93;;;4.15;;
1294;SDS011;640;48.310;11.728;2022-09-03T09:23:14;6.65;;;4.30;;
1294;SDS011;640;48.310;11.728;2022-09-03T09:25:48;4.55;;;4.00;;
1294;SDS011;640;48.310;11.728;2022-09-03T09:28:19;5.38;;;4.28;;
1294;SDS011;640;48.310;11.728;2022-09-03T09:30:49;5.63;;;4.10;;
1294;SDS011;640;48.310;11.728;2022-09-03T09:33:19;4.07;;;3.47;;
1294;SDS011;640;48.310;11.728;2022-09-03T09:35:48;6.03;;;4.07;;
1294;SDS011;640;48.310;11.728;2022-09-03T09:38:26;4.75;;;4.15;;
1294;SDS011;640;48.310;11.728;2022-09-03T09:40:55;6.55;;;4.25;;
1294;SDS011;640;48.310;11.728;2022-09-03T09:43:26;8.73;;;3.88;;
1294;SDS011;640;48.310;11.728;2022-09-03T09:45:55;7.65;;;4.25;;
1294;SDS011;640;48.310;11.728;2022-09-03T09:48:36;5.90;;;4.15;;
1294;SDS011;640;48.310;11.728;2022-09-03T09:51:08;4.43;;;3.80;;
1294;SDS011;640;48.310;11.728;2022-09-03T09:53:37;4.50;;;3.72;;
1294;SDS011;640;48.310;11.728;2022-09-03T09:56:06;6.07;;;3.83;;
1294;SDS011;640;48.310;11.728;2022-09-03T09:58:36;5.65;;;3.30;;
1294;SDS011;640;48.310;11.728;2022-09-03T10:03:40;4.63;;;3.63;;
1294;SDS011;640;48.310;11.728;2022-09-03T10:06:16;5.88;;;3.67;;
1294;SDS011;640;48.310;11.728;2022-09-03T10:09:05;3.35;;;3.05;;
1294;SDS011;640;48.310;11.728;2022-09-03T10:11:34;3.75;;;3.00;;
1294;SDS011;640;48.310;11.728;2022-09-03T10:14:08;5.05;;;3.13;;
1294;SDS011;640;48.310;11.728;2022-09-03T10:16:41;3.17;;;2.88;;
1294;SDS011;640;48.310;11.728;2022-09-03T10:19:18;6.53;;;2.92;;
1294;SDS011;640;48.310;11.728;2022-09-03T10:21:49;3.28;;;2.80;;
1294;SDS011;640;48.310;11.728;2022-09-03T10:24:27;4.78;;;2.90;;
1294;SDS011;640;48.310;11.728;2022-09-03T10:27:06;3.53;;;2.92;;
1294;SDS011;640;48.310;11.728;2022-09-03T10:29:38;3.20;;;2.90;;
1294;SDS011;640;48.310;11.728;2022-09-03T10:32:11;5.07;;;2.95;;
1294;SDS011;640;48.310;11.728;2022-09-03T10:34:51;3.05;;;2.65;;
1294;SDS011;640;48.310;11.728;2022-09-03T10:37:28;3.33;;;2.80;;
1294;SDS011;640;48.310;11.728;2022-09-03T10:40:07;2.60;;;2.30;;
1294;SDS011;640;48.310;11.728;2022-09-03T10:42:41;4.18;;;2.35;;
1294;SDS011;640;48.310;11.728;2022-09-03T10:45:16;2.83;;;2.47;;
1294;SDS011;640;48.310;11.728;2022-09-03T10:50:43;3.55;;;2.42;;
1294;SDS011;640;48.310;11.728;2022-09-03T10:53:19;3.72;;;2.60;;
1294;SDS011;640;48.310;11.728;2022-09-03T10:55:58;3.17;;;2.08;;
1294;SDS011;640;48.310;11.728;2022-09-03T10:58:32;2.50;;;2.00;;
1294;SDS011;640;48.310;11.728;2022-09-03T11:01:20;2.72;;;2.00;;
1294;SDS011;640;48.310;11.728;2022-09-03T11:03:55;2.60;;;2.08;;
1294;SDS011;640;48.310;11.728;2022-09-03T11:06:29;2.42;;;2.10;;
1294;SDS011;640;48.310;11.728;2022-09-03T11:09:04;2.38;;;2.15;;
1294;SDS011;640;48.310;11.728;2022-09-03T11:11:40;2.55;;;1.95;;
1294;SDS011;640;48.310;11.728;2022-09-03T11:14:11;2.35;;;2.15;;
1294;SDS011;640;48.310;11.728;2022-09-03T11:16:44;2.78;;;2.00;;
1294;SDS011;640;48.310;11.728;2022-09-03T11:19:16;3.28;;;2.25;;
1294;SDS011;640;48.310;11.728;2022-09-03T11:21:45;3.33;;;1.70;;
1294;SDS011;640;48.310;11.728;2022-09-03T11:24:17;2.63;;;2.00;;
1294;SDS011;640;48.310;11.728;2022-09-03T11:26:49;2.75;;;2.20;;
1294;SDS011;640;48.310;11.728;2022-09-03T11:29:21;2.70;;;1.92;;
1294;SDS011;640;48.310;11.728;2022-09-03T11:32:00;3.20;;;1.83;;
1294;SDS011;640;48.310;11.728;2022-09-03T11:34:30;2.42;;;1.92;;
1294;SDS011;640;48.310;11.728;2022-09-03T11:37:06;2.38;;;2.13;;
1294;SDS011;640;48.310;11.728;2022-09-03T11:39:51;3.10;;;1.90;;
1294;SDS011;640;48.310;11.728;2022-09-03T11:42:29;2.85;;;1.80;;
1294;SDS011;640;48.310;11.728;2022-09-03T11:45:11;4.00;;;2.00;;
1294;SDS011;640;48.310;11.728;2022-09-03T11:47:52;1.73;;;1.63;;
1294;SDS011;640;48.310;11.728;2022-09-03T11:52:51;3.38;;;3.05;;
1294;SDS011;640;48.310;11.728;2022-09-03T11:55:23;20.77;;;4.13;;
1294;SDS011;640;48.310;11.728;2022-09-03T11:58:11;3.53;;;2.10;;
1294;SDS011;640;48.310;11.728;2022-09-03T12:00:52;2.50;;;1.88;;
1294;SDS011;640;48.310;11.728;2022-09-03T12:03:23;1.92;;;1.70;;
1294;SDS011;640;48.310;11.728;2022-09-03T12:06:02;1.90;;;1.75;;
1294;SDS011;640;48.310;11.728;2022-09-03T12:08:46;4.18;;;1.90;;
1294;SDS011;640;48.310;11.728;2022-09-03T12:11:28;2.75;;;1.88;;
1294;SDS011;640;48.310;11.728;2022-09-03T12:14:05;2.00;;;1.67;;
1294;SDS011;640;48.310;11.728;2022-09-03T12:19:28;2.65;;;1.80;;
1294;SDS011;640;48.310;11.728;2022-09-03T12:22:03;3.00;;;2.38;;
1294;SDS011;640;48.310;11.728;2022-09-03T12:24:31;3.28;;;2.05;;
1294;SDS011;640;48.310;11.728;2022-09-03T12:27:04;3.13;;;2.05;;
1294;SDS011;640;48.310;11.728;2022-09-03T12:29:33;2.60;;;1.90;;
1294;SDS011;640;48.310;11.728;2022-09-03T12:32:05;2.88;;;2.20;;
1294;SDS011;640;48.310;11.728;2022-09-03T12:34:37;5.00;;;2.00;;
1294;SDS011;640;48.310;11.728;2022-09-03T12:37:13;2.00;;;1.80;;
1294;SDS011;640;48.310;11.728;2022-09-03T12:40:14;4.63;;;2.17;;
1294;SDS011;640;48.310;11.728;2022-09-03T12:42:44;3.25;;;2.03;;
1294;SDS011;640;48.310;11.728;2022-09-03T12:45:13;2.20;;;1.88;;
1294;SDS011;640;48.310;11.728;2022-09-03T12:47:42;3.33;;;2.40;;
1294;SDS011;640;48.310;11.728;2022-09-03T12:50:12;2.13;;;1.92;;
1294;SDS011;640;48.310;11.728;2022-09-03T12:52:43;4.07;;;2.10;;
1294;SDS011;640;48.310;11.728;2022-09-03T12:55:20;2.97;;;2.40;;
1294;SDS011;640;48.310;11.728;2022-09-03T12:57:55;2.50;;;2.30;;
1294;SDS011;640;48.310;11.728;2022-09-03T13:00:30;4.13;;;2.10;;
1294;SDS011;640;48.310;11.728;2022-09-03T13:03:01;3.00;;;2.30;;
1294;SDS011;640;48.310;11.728;2022-09-03T13:05:33;3.58;;;2.30;;
1294;SDS011;640;48.310;11.728;2022-09-03T13:08:04;3.05;;;2.25;;
1294;SDS011;640;48.310;11.728;2022-09-03T13:10:34;3.83;;;2.33;;
1294;SDS011;640;48.310;11.728;2022-09-03T13:13:06;3.03;;;2.20;;
1294;SDS011;640;48.310;11.728;2022-09-03T13:18:37;2.97;;;2.20;;
1294;SDS011;640;48.310;11.728;2022-09-03T13:21:12;2.55;;;2.35;;
1294;SDS011;640;48.310;11.728;2022-09-03T13:23:48;3.00;;;2.30;;
1294;SDS011;640;48.310;11.728;2022-09-03T13:26:26;3.83;;;2.25;;
1294;SDS011;640;48.310;11.728;2022-09-03T13:29:06;2.47;;;2.20;;
1294;SDS011;640;48.310;11.728;2022-09-03T13:31:44;3.05;;;2.10;;
1294;SDS011;640;48.310;11.728;2022-09-03T13:34:15;5.03;;;2.00;;
1294;SDS011;640;48.310;11.728;2022-09-03T13:36:48;4.47;;;2.40;;
1294;SDS011;640;48.310;11.728;2022-09-03T13:39:20;3.47;;;2.03;;
1294;SDS011;640;48.310;11.728;2022-09-03T13:41:52;3.60;;;2.10;;
1294;SDS011;640;48.310;11.728;2022-09-03T13:44:23;3.28;;;2.10;;
1294;SDS011;640;48.310;11.728;2022-09-03T13:47:00;3.42;;;2.30;;
1294;SDS011;640;48.310;11.728;2022-09-03T13:49:35;2.72;;;2.30;;
1294;SDS011;640;48.310;11.728;2022-09-03T13:52:26;3.85;;;2.40;;
1294;SDS011;640;48.310;11.728;2022-09-03T13:55:00;3.08;;;2.47;;
1294;SDS011;640;48.310;11.728;2022-09-03T13:57:34;3.90;;;2.25;;
1294;SDS011;640;48.310;11.728;2022-09-03T14:00:07;3.83;;;2.25;;
1294;SDS011;640;48.310;11.728;2022-09-03T14:02:43;3.95;;;2.28;;
1294;SDS011;640;48.310;11.728;2022-09-03T14:05:15;3.25;;;2.38;;
1294;SDS011;640;48.310;11.728;2022-09-03T14:07:53;4.00;;;2.40;;
1294;SDS011;640;48.310;11.728;2022-09-03T14:10:30;4.05;;;2.35;;
1294;SDS011;640;48.310;11.728;2022-09-03T14:13:09;2.20;;;2.00;;
1294;SDS011;640;48.310;11.728;2022-09-03T14:15:45;5.43;;;2.42;;
1294;SDS011;640;48.310;11.728;2022-09-03T14:18:25;5.65;;;2.50;;
1294;SDS011;640;48.310;11.728;2022-09-03T14:21:04;2.40;;;2.10;;
1294;SDS011;640;48.310;11.728;2022-09-03T14:23:39;3.38;;;2.25;;
1294;SDS011;640;48.310;11.728;2022-09-03T14:26:15;16.63;;;3.17;;
1294;SDS011;640;48.310;11.728;2022-09-03T14:29:02;6.13;;;2.58;;
1294;SDS011;640;48.310;11.728;2022-09-03T14:31:37;2.50;;;2.30;;
1294;SDS011;640;48.310;11.728;2022-09-03T14:34:21;2.70;;;2.30;;
1294;SDS011;640;48.310;11.728;2022-09-03T14:36:58;3.42;;;2.38;;
1294;SDS011;640;48.310;11.728;2022-09-03T14:39:35;3.17;;;2.40;;
1294;SDS011;640;48.310;11.728;2022-09-03T14:42:26;3.20;;;2.45;;
1294;SDS011;640;48.310;11.728;2022-09-03T14:45:19;4.18;;;2.40;;
1294;SDS011;640;48.310;11.728;2022-09-03T14:48:07;4.43;;;2.30;;
1294;SDS011;640;48.310;11.728;2022-09-03T14:50:51;2.85;;;2.10;;
1294;SDS011;640;48.310;11.728;2022-09-03T14:53:36;6.18;;;2.60;;
1294;SDS011;640;48.310;11.728;2022-09-03T14:56:19;4.15;;;2.60;;
1294;SDS011;640;48.310;11.728;2022-09-03T14:58:57;9.30;;;3.00;;
1294;SDS011;640;48.310;11.728;2022-09-03T15:01:35;5.85;;;2.28;;
1294;SDS011;640;48.310;11.728;2022-09-03T15:07:12;7.07;;;1.98;;
1294;SDS011;640;48.310;11.728;2022-09-03T15:09:45;4.72;;;2.40;;
1294;SDS011;640;48.310;11.728;2022-09-03T15:12:23;6.22;;;2.35;;
1294;SDS011;640;48.310;11.728;2022-09-03T15:14:56;6.35;;;2.65;;
1294;SDS011;640;48.310;11.728;2022-09-03T15:17:31;9.35;;;2.33;;
1294;SDS011;640;48.310;11.728;2022-09-03T15:20:10;4.60;;;2.15;;
1294;SDS011;640;48.310;11.728;2022-09-03T15:22:54;5.22;;;2.10;;
1294;SDS011;640;48.310;11.728;2022-09-03T15:25:32;5.60;;;2.10;;
1294;SDS011;640;48.310;11.728;2022-09-03T15:28:24;4.30;;;1.98;;
1294;SDS011;640;48.310;11.728;2022-09-03T15:31:01;4.50;;;2.30;;
1294;SDS011;640;48.310;11.728;2022-09-03T15:33:38;3.70;;;1.77;;
1294;SDS011;640;48.310;11.728;2022-09-03T15:36:12;5.70;;;2.00;;
1294;SDS011;640;48.310;11.728;2022-09-03T15:38:46;8.45;;;2.05;;
1294;SDS011;640;48.310;11.728;2022-09-03T15:41:20;3.50;;;1.70;;
1294;SDS011;640;48.310;11.728;2022-09-03T15:43:58;5.18;;;2.00;;
1294;SDS011;640;48.310;11.728;2022-09-03T15:46:30;3.42;;;1.80;;
1294;SDS011;640;48.310;11.728;2022-09-03T15:49:03;5.35;;;2.20;;
1294;SDS011;640;48.310;11.728;2022-09-03T15:51:41;3.25;;;2.00;;
1294;SDS011;640;48.310;11.728;2022-09-03T15:54:16;4.90;;;2.45;;
1294;SDS011;640;48.310;11.728;2022-09-03T15:56:51;2.53;;;1.80;;
1294;SDS011;640;48.310;11.728;2022-09-03T15:59:28;4.53;;;1.98;;
1294;SDS011;640;48.310;11.728;2022-09-03T16:02:02;6.53;;;2.25;;
1294;SDS011;640;48.310;11.728;2022-09-03T16:04:49;4.47;;;2.30;;
1294;SDS011;640;48.310;11.728;2022-09-03T16:07:38;7.00;;;2.30;;
1294;SDS011;640;48.310;11.728;2022-09-03T16:10:15;4.20;;;2.50;;
1294;SDS011;640;48.310;11.728;2022-09-03T16:12:54;5.50;;;2.50;;
1294;SDS011;640;48.310;11.728;2022-09-03T16:15:32;4.05;;;2.00;;
1294;SDS011;640;48.310;11.728;2022-09-03T16:18:05;5.88;;;2.58;;
1294;SDS011;640;48.310;11.728;2022-09-03T16:20:37;5.55;;;2.40;;
1294;SDS011;640;48.310;11.728;2022-09-03T16:23:10;5.93;;;2.53;;
1294;SDS011;640;48.310;11.728;2022-09-03T16:25:44;4.05;;;2.15;;
1294;SDS011;640;48.310;11.728;2022-09-03T16:28:17;3.47;;;2.30;;